SBI7520 VNKT-UTAA
Flight info
| Callsign | SBI7520 |
|---|---|
| Flight time | 4h 11m |
| Altitude | 36000 |
| Route | VNKT N0440F360 DARK1G DARKE NARAN L626 HW W85 SP M890 SULOM L509 TAPIS P173 DAVET B475 NINOP A125 KEMOR KEM29A GUDRA CI29L FI29L RW29L UTAA |
| Aircraft | B738/M-SDGIWZ/S |
Departure
| Time | 2026-04-26 07:05 |
|---|---|
| Airport | Tribhuvan International Airport (VNKT) |
Arrival
| Time | 2026-04-26 11:16 |
|---|---|
| Airport | Ashgabat International Airport (UTAA) |
| Time | Latitude | Longitude | Altitude | Speed | Heading |
|---|---|---|---|---|---|
| 2026-04-26 06:56 | 27.70142 | 85.35914 | 4399 ft | 0 kts | 291° |
| 2026-04-26 07:02 | 27.70136 | 85.35931 | 4399 ft | 4 kts | 291° |
| 2026-04-26 07:02 | 27.70121 | 85.35976 | 4399 ft | 7 kts | 291° |
| 2026-04-26 07:02 | 27.70081 | 85.36000 | 4399 ft | 7 kts | 6° |
| 2026-04-26 07:02 | 27.70145 | 85.36021 | 4399 ft | 27 kts | 21° |
| 2026-04-26 07:03 | 27.70323 | 85.36102 | 4399 ft | 26 kts | 21° |
| 2026-04-26 07:03 | 27.70485 | 85.36176 | 4399 ft | 24 kts | 22° |
| 2026-04-26 07:03 | 27.70584 | 85.36287 | 4399 ft | 18 kts | 66° |
| 2026-04-26 07:03 | 27.70683 | 85.36382 | 4399 ft | 21 kts | 23° |
| 2026-04-26 07:04 | 27.70831 | 85.36474 | 4399 ft | 24 kts | 59° |
| 2026-04-26 07:04 | 27.70913 | 85.36491 | 4399 ft | 9 kts | 242° |
| 2026-04-26 07:04 | 27.70841 | 85.36452 | 4399 ft | 23 kts | 201° |
| 2026-04-26 07:04 | 27.70465 | 85.36283 | 4399 ft | 91 kts | 201° |
| 2026-04-26 07:05 | 27.69688 | 85.35930 | 4399 ft | 147 kts | 202° |
| 2026-04-26 07:05 | 27.68599 | 85.35433 | 4446 ft | 186 kts | 202° |
| 2026-04-26 07:05 | 27.67359 | 85.34863 | 4786 ft | 200 kts | 202° |
| 2026-04-26 07:05 | 27.66148 | 85.34148 | 5399 ft | 198 kts | 221° |
| 2026-04-26 07:06 | 27.65292 | 85.32856 | 5680 ft | 219 kts | 246° |
| 2026-04-26 07:06 | 27.64925 | 85.31132 | 6059 ft | 234 kts | 269° |
| 2026-04-26 07:06 | 27.65273 | 85.29321 | 6379 ft | 247 kts | 300° |
| 2026-04-26 07:06 | 27.66451 | 85.27888 | 6819 ft | 253 kts | 322° |
| 2026-04-26 07:07 | 27.67932 | 85.26784 | 7259 ft | 261 kts | 338° |
| 2026-04-26 07:07 | 27.69716 | 85.26556 | 7748 ft | 264 kts | 11° |
| 2026-04-26 07:07 | 27.71398 | 85.27253 | 8378 ft | 262 kts | 26° |
| 2026-04-26 07:07 | 27.72876 | 85.28486 | 8780 ft | 269 kts | 51° |
| 2026-04-26 07:08 | 27.73752 | 85.30328 | 9418 ft | 266 kts | 66° |
| 2026-04-26 07:08 | 27.74505 | 85.32252 | 9878 ft | 271 kts | 64° |
| 2026-04-26 07:08 | 27.75292 | 85.34177 | 10360 ft | 275 kts | 68° |
| 2026-04-26 07:08 | 27.75746 | 85.36290 | 10875 ft | 281 kts | 86° |
| 2026-04-26 07:09 | 27.75623 | 85.38462 | 11621 ft | 278 kts | 101° |
| 2026-04-26 07:09 | 27.74969 | 85.40520 | 12178 ft | 282 kts | 119° |
| 2026-04-26 07:09 | 27.73764 | 85.42237 | 12707 ft | 286 kts | 136° |
| 2026-04-26 07:09 | 27.72137 | 85.43539 | 13207 ft | 292 kts | 154° |
| 2026-04-26 07:10 | 27.66153 | 85.43694 | 14606 ft | 301 kts | 213° |
| 2026-04-26 07:11 | 27.63034 | 85.40672 | 15467 ft | 305 kts | 243° |
| 2026-04-26 07:11 | 27.62411 | 85.38441 | 16111 ft | 295 kts | 264° |
| 2026-04-26 07:11 | 27.62182 | 85.36160 | 16517 ft | 299 kts | 272° |
| 2026-04-26 07:11 | 27.62570 | 85.33886 | 16858 ft | 297 kts | 300° |
| 2026-04-26 07:12 | 27.63692 | 85.32001 | 17548 ft | 287 kts | 308° |
| 2026-04-26 07:12 | 27.64874 | 85.30113 | 17667 ft | 302 kts | 305° |
| 2026-04-26 07:12 | 27.66069 | 85.28086 | 17732 ft | 318 kts | 306° |
| 2026-04-26 07:12 | 27.67348 | 85.26012 | 17780 ft | 332 kts | 307° |
| 2026-04-26 07:13 | 27.68720 | 85.23821 | 17830 ft | 347 kts | 307° |
| 2026-04-26 07:13 | 27.70098 | 85.21532 | 17877 ft | 361 kts | 302° |
| 2026-04-26 07:13 | 27.71258 | 85.18965 | 17928 ft | 375 kts | 295° |
| 2026-04-26 07:13 | 27.72273 | 85.16228 | 18049 ft | 385 kts | 295° |
| 2026-04-26 07:14 | 27.73288 | 85.13421 | 18318 ft | 391 kts | 292° |
| 2026-04-26 07:14 | 27.74044 | 85.10433 | 18574 ft | 399 kts | 282° |
| 2026-04-26 07:14 | 27.74128 | 85.07304 | 18872 ft | 407 kts | 267° |
| 2026-04-26 07:14 | 27.73805 | 85.04118 | 19226 ft | 410 kts | 266° |
| 2026-04-26 07:15 | 27.73505 | 85.00893 | 19329 ft | 418 kts | 262° |
| 2026-04-26 07:15 | 27.73237 | 84.97638 | 19857 ft | 414 kts | 261° |
| 2026-04-26 07:15 | 27.72947 | 84.94448 | 20162 ft | 416 kts | 261° |
| 2026-04-26 07:15 | 27.72632 | 84.91177 | 20565 ft | 416 kts | 260° |
| 2026-04-26 07:16 | 27.72322 | 84.87934 | 20884 ft | 418 kts | 260° |
| 2026-04-26 07:16 | 27.72012 | 84.84684 | 21200 ft | 419 kts | 260° |
| 2026-04-26 07:16 | 27.71703 | 84.81453 | 21588 ft | 418 kts | 260° |
| 2026-04-26 07:16 | 27.71387 | 84.78172 | 21847 ft | 420 kts | 260° |
| 2026-04-26 07:17 | 27.71073 | 84.74923 | 22194 ft | 420 kts | 260° |
| 2026-04-26 07:17 | 27.70753 | 84.71616 | 22487 ft | 421 kts | 260° |
| 2026-04-26 07:17 | 27.70439 | 84.68375 | 22773 ft | 422 kts | 260° |
| 2026-04-26 07:17 | 27.70118 | 84.65086 | 23069 ft | 422 kts | 260° |
| 2026-04-26 07:18 | 27.69794 | 84.61755 | 23344 ft | 423 kts | 260° |
| 2026-04-26 07:18 | 27.69472 | 84.58471 | 23634 ft | 423 kts | 259° |
| 2026-04-26 07:18 | 27.69149 | 84.55180 | 23895 ft | 424 kts | 259° |
| 2026-04-26 07:18 | 27.68823 | 84.51868 | 24161 ft | 425 kts | 259° |
| 2026-04-26 07:19 | 27.68510 | 84.48591 | 24427 ft | 425 kts | 261° |
| 2026-04-26 07:19 | 27.68397 | 84.45252 | 24646 ft | 430 kts | 267° |
| 2026-04-26 07:19 | 27.68646 | 84.41869 | 24886 ft | 435 kts | 275° |
| 2026-04-26 07:19 | 27.69349 | 84.38554 | 25127 ft | 440 kts | 283° |
| 2026-04-26 07:20 | 27.70343 | 84.35286 | 25387 ft | 441 kts | 285° |
| 2026-04-26 07:20 | 27.71352 | 84.32019 | 25587 ft | 442 kts | 284° |
| 2026-04-26 07:20 | 27.72334 | 84.28726 | 25798 ft | 442 kts | 284° |
| 2026-04-26 07:20 | 27.73306 | 84.25462 | 26013 ft | 442 kts | 284° |
| 2026-04-26 07:21 | 27.74291 | 84.22185 | 26249 ft | 442 kts | 284° |
| 2026-04-26 07:21 | 27.75285 | 84.18890 | 26417 ft | 444 kts | 284° |
| 2026-04-26 07:21 | 27.76274 | 84.15609 | 26661 ft | 443 kts | 284° |
| 2026-04-26 07:21 | 27.77271 | 84.12305 | 26858 ft | 443 kts | 284° |
| 2026-04-26 07:22 | 27.78255 | 84.09037 | 27008 ft | 444 kts | 284° |
| 2026-04-26 07:22 | 27.79243 | 84.05759 | 27235 ft | 443 kts | 284° |
| 2026-04-26 07:22 | 27.80235 | 84.02468 | 27417 ft | 444 kts | 284° |
| 2026-04-26 07:22 | 27.81238 | 83.99134 | 27545 ft | 445 kts | 284° |
| 2026-04-26 07:23 | 27.82221 | 83.95867 | 27759 ft | 444 kts | 284° |
| 2026-04-26 07:23 | 27.83213 | 83.92569 | 27896 ft | 445 kts | 284° |
| 2026-04-26 07:23 | 27.84211 | 83.89244 | 28061 ft | 445 kts | 284° |
| 2026-04-26 07:23 | 27.85207 | 83.85927 | 28237 ft | 445 kts | 284° |
| 2026-04-26 07:24 | 27.86191 | 83.82642 | 28374 ft | 446 kts | 284° |
| 2026-04-26 07:24 | 27.87187 | 83.79318 | 28541 ft | 445 kts | 284° |
| 2026-04-26 07:24 | 27.88166 | 83.76047 | 28686 ft | 445 kts | 284° |
| 2026-04-26 07:24 | 27.89162 | 83.72717 | 28820 ft | 446 kts | 284° |
| 2026-04-26 07:25 | 27.90153 | 83.69399 | 28978 ft | 445 kts | 284° |
| 2026-04-26 07:25 | 27.92128 | 83.62777 | 29190 ft | 447 kts | 284° |
| 2026-04-26 07:25 | 27.93115 | 83.59463 | 29340 ft | 446 kts | 284° |
| 2026-04-26 07:26 | 27.94109 | 83.56124 | 29430 ft | 447 kts | 284° |
| 2026-04-26 07:26 | 27.95099 | 83.52818 | 29585 ft | 446 kts | 285° |
| 2026-04-26 07:26 | 27.96182 | 83.49562 | 29849 ft | 444 kts | 287° |
| 2026-04-26 07:26 | 27.97329 | 83.46339 | 30088 ft | 442 kts | 287° |
| 2026-04-26 07:27 | 27.98457 | 83.43127 | 30217 ft | 441 kts | 287° |
| 2026-04-26 07:27 | 28.00677 | 83.36668 | 30535 ft | 438 kts | 287° |
| 2026-04-26 07:27 | 28.01779 | 83.33464 | 30777 ft | 435 kts | 286° |
| 2026-04-26 07:28 | 28.02883 | 83.30271 | 30963 ft | 434 kts | 287° |
| 2026-04-26 07:28 | 28.03976 | 83.27123 | 31145 ft | 432 kts | 287° |
| 2026-04-26 07:28 | 28.05065 | 83.23966 | 31269 ft | 432 kts | 287° |
| 2026-04-26 07:29 | 28.07228 | 83.17655 | 31512 ft | 431 kts | 286° |
| 2026-04-26 07:29 | 28.08308 | 83.14473 | 31754 ft | 428 kts | 286° |
| 2026-04-26 07:29 | 28.09351 | 83.11382 | 31952 ft | 425 kts | 286° |
| 2026-04-26 07:29 | 28.10409 | 83.08250 | 32096 ft | 424 kts | 286° |
| 2026-04-26 07:30 | 28.11466 | 83.05132 | 32166 ft | 425 kts | 287° |
| 2026-04-26 07:30 | 28.12524 | 83.02017 | 32289 ft | 424 kts | 287° |
| 2026-04-26 07:30 | 28.13585 | 82.98904 | 32372 ft | 424 kts | 287° |
| 2026-04-26 07:30 | 28.14645 | 82.95821 | 32490 ft | 423 kts | 287° |
| 2026-04-26 07:31 | 28.15706 | 82.92737 | 32658 ft | 421 kts | 287° |
| 2026-04-26 07:31 | 28.16758 | 82.89665 | 32822 ft | 418 kts | 287° |
| 2026-04-26 07:31 | 28.17800 | 82.86601 | 32895 ft | 418 kts | 287° |
| 2026-04-26 07:31 | 28.18833 | 82.83531 | 33004 ft | 417 kts | 287° |
| 2026-04-26 07:32 | 28.19862 | 82.80456 | 33100 ft | 416 kts | 288° |
| 2026-04-26 07:32 | 28.21909 | 82.74356 | 33294 ft | 414 kts | 288° |
| 2026-04-26 07:33 | 28.23978 | 82.68277 | 33459 ft | 413 kts | 288° |
| 2026-04-26 07:33 | 28.26026 | 82.62219 | 33628 ft | 411 kts | 288° |
| 2026-04-26 07:34 | 28.28053 | 82.56160 | 33781 ft | 410 kts | 288° |
| 2026-04-26 07:34 | 28.30056 | 82.50154 | 33934 ft | 409 kts | 288° |
| 2026-04-26 07:35 | 28.32051 | 82.44167 | 34088 ft | 407 kts | 288° |
| 2026-04-26 07:35 | 28.34055 | 82.38152 | 34237 ft | 405 kts | 288° |
| 2026-04-26 07:36 | 28.36037 | 82.32217 | 34384 ft | 405 kts | 288° |
| 2026-04-26 07:36 | 28.38039 | 82.26268 | 34528 ft | 404 kts | 288° |
| 2026-04-26 07:37 | 28.40038 | 82.20335 | 34683 ft | 403 kts | 288° |
| 2026-04-26 07:37 | 28.42027 | 82.14381 | 34829 ft | 402 kts | 288° |
| 2026-04-26 07:38 | 28.43962 | 82.08485 | 34971 ft | 401 kts | 288° |
| 2026-04-26 07:38 | 28.45914 | 82.02537 | 35119 ft | 400 kts | 288° |
| 2026-04-26 07:39 | 28.47848 | 81.96659 | 35259 ft | 399 kts | 288° |
| 2026-04-26 07:39 | 28.49812 | 81.90775 | 35417 ft | 397 kts | 288° |
| 2026-04-26 07:40 | 28.51760 | 81.84952 | 35547 ft | 396 kts | 288° |
| 2026-04-26 07:40 | 28.53682 | 81.79108 | 35719 ft | 394 kts | 288° |
| 2026-04-26 07:41 | 28.55588 | 81.73245 | 35697 ft | 397 kts | 288° |
| 2026-04-26 07:41 | 28.57522 | 81.67374 | 35695 ft | 399 kts | 288° |
| 2026-04-26 07:42 | 28.59418 | 81.61434 | 35695 ft | 399 kts | 285° |
| 2026-04-26 07:42 | 28.60906 | 81.55393 | 35698 ft | 400 kts | 284° |
| 2026-04-26 07:43 | 28.62464 | 81.49334 | 35705 ft | 399 kts | 284° |
| 2026-04-26 07:43 | 28.64019 | 81.43286 | 35713 ft | 400 kts | 284° |
| 2026-04-26 07:44 | 28.65550 | 81.37228 | 35721 ft | 400 kts | 284° |
| 2026-04-26 07:44 | 28.67108 | 81.31142 | 35720 ft | 399 kts | 284° |
| 2026-04-26 07:45 | 28.68672 | 81.25127 | 35722 ft | 399 kts | 284° |
| 2026-04-26 07:45 | 28.70222 | 81.19076 | 35723 ft | 400 kts | 284° |
| 2026-04-26 07:46 | 28.71750 | 81.12990 | 35723 ft | 399 kts | 284° |
| 2026-04-26 07:46 | 28.73280 | 81.06934 | 35723 ft | 399 kts | 284° |
| 2026-04-26 07:47 | 28.74826 | 81.00902 | 35723 ft | 397 kts | 284° |
| 2026-04-26 07:47 | 28.76360 | 80.94857 | 35721 ft | 396 kts | 284° |
| 2026-04-26 07:48 | 28.77860 | 80.88835 | 35724 ft | 397 kts | 284° |
| 2026-04-26 07:48 | 28.79372 | 80.82797 | 35723 ft | 396 kts | 284° |
| 2026-04-26 07:49 | 28.80867 | 80.76802 | 35723 ft | 396 kts | 284° |
| 2026-04-26 07:49 | 28.82382 | 80.70799 | 35723 ft | 396 kts | 284° |
| 2026-04-26 07:50 | 28.84681 | 80.61764 | 35723 ft | 395 kts | 285° |
| 2026-04-26 07:50 | 28.86191 | 80.55759 | 35723 ft | 395 kts | 284° |
| 2026-04-26 07:51 | 28.87666 | 80.49728 | 35723 ft | 394 kts | 284° |
| 2026-04-26 07:51 | 28.89153 | 80.43743 | 35723 ft | 395 kts | 285° |
| 2026-04-26 07:52 | 28.90688 | 80.37691 | 35724 ft | 396 kts | 284° |
| 2026-04-26 07:52 | 28.92162 | 80.31644 | 35723 ft | 396 kts | 283° |
| 2026-04-26 07:53 | 28.93658 | 80.25614 | 35722 ft | 395 kts | 284° |
| 2026-04-26 07:53 | 28.95167 | 80.19608 | 35722 ft | 395 kts | 284° |
| 2026-04-26 07:54 | 28.96427 | 80.13534 | 35724 ft | 393 kts | 277° |
| 2026-04-26 07:54 | 28.97011 | 80.07364 | 35723 ft | 393 kts | 275° |
| 2026-04-26 07:55 | 28.97641 | 80.01181 | 35722 ft | 392 kts | 276° |
| 2026-04-26 07:55 | 28.98279 | 79.95032 | 35724 ft | 392 kts | 276° |
| 2026-04-26 07:56 | 28.98910 | 79.88863 | 35723 ft | 392 kts | 276° |
| 2026-04-26 07:56 | 28.99546 | 79.82667 | 35723 ft | 392 kts | 276° |
| 2026-04-26 07:57 | 29.00166 | 79.76547 | 35721 ft | 389 kts | 276° |
| 2026-04-26 07:57 | 29.00771 | 79.70390 | 35724 ft | 389 kts | 276° |
| 2026-04-26 07:58 | 29.01383 | 79.64265 | 35723 ft | 390 kts | 276° |
| 2026-04-26 07:58 | 29.02037 | 79.58147 | 35722 ft | 389 kts | 276° |
| 2026-04-26 07:59 | 29.02814 | 79.52035 | 35722 ft | 389 kts | 281° |
| 2026-04-26 07:59 | 29.04949 | 79.46361 | 35728 ft | 397 kts | 298° |
| 2026-04-26 08:00 | 29.08415 | 79.41434 | 35725 ft | 403 kts | 310° |
| 2026-04-26 08:00 | 29.12472 | 79.37035 | 35723 ft | 402 kts | 309° |
| 2026-04-26 08:01 | 29.16423 | 79.32579 | 35721 ft | 403 kts | 309° |
| 2026-04-26 08:01 | 29.20409 | 79.28083 | 35723 ft | 402 kts | 309° |
| 2026-04-26 08:02 | 29.24410 | 79.23650 | 35722 ft | 401 kts | 309° |
| 2026-04-26 08:02 | 29.28414 | 79.19231 | 35723 ft | 403 kts | 309° |
| 2026-04-26 08:03 | 29.32435 | 79.14727 | 35722 ft | 403 kts | 309° |
| 2026-04-26 08:03 | 29.36384 | 79.10268 | 35724 ft | 402 kts | 309° |
| 2026-04-26 08:04 | 29.40340 | 79.05798 | 35723 ft | 400 kts | 309° |
| 2026-04-26 08:04 | 29.44278 | 79.01344 | 35723 ft | 398 kts | 309° |
| 2026-04-26 08:05 | 29.48242 | 78.96897 | 35723 ft | 399 kts | 310° |
| 2026-04-26 08:05 | 29.52243 | 78.92471 | 35727 ft | 398 kts | 310° |
| 2026-04-26 08:06 | 29.56187 | 78.88061 | 35741 ft | 399 kts | 310° |
| 2026-04-26 08:06 | 29.60128 | 78.83632 | 35760 ft | 398 kts | 310° |
| 2026-04-26 08:07 | 29.64062 | 78.79173 | 35784 ft | 399 kts | 309° |
| 2026-04-26 08:07 | 29.67979 | 78.74706 | 35798 ft | 398 kts | 309° |
| 2026-04-26 08:08 | 29.71917 | 78.70239 | 35803 ft | 398 kts | 310° |
| 2026-04-26 08:08 | 29.75867 | 78.65796 | 35804 ft | 398 kts | 310° |
| 2026-04-26 08:09 | 29.79799 | 78.61330 | 35803 ft | 398 kts | 309° |
| 2026-04-26 08:09 | 29.83709 | 78.56831 | 35803 ft | 397 kts | 309° |
| 2026-04-26 08:10 | 29.87628 | 78.52370 | 35802 ft | 397 kts | 310° |
| 2026-04-26 08:10 | 29.91567 | 78.47941 | 35805 ft | 397 kts | 310° |
| 2026-04-26 08:11 | 29.95484 | 78.43495 | 35774 ft | 398 kts | 310° |
| 2026-04-26 08:11 | 29.99410 | 78.39014 | 35778 ft | 398 kts | 310° |
| 2026-04-26 08:12 | 30.03308 | 78.34519 | 35777 ft | 397 kts | 309° |
| 2026-04-26 08:12 | 30.07192 | 78.30045 | 35777 ft | 397 kts | 309° |
| 2026-04-26 08:13 | 30.11123 | 78.25584 | 35777 ft | 398 kts | 310° |
| 2026-04-26 08:13 | 30.14379 | 78.20606 | 35783 ft | 385 kts | 289° |
| 2026-04-26 08:14 | 30.16237 | 78.14814 | 35773 ft | 384 kts | 283° |
| 2026-04-26 08:14 | 30.16642 | 78.11796 | 35774 ft | 381 kts | 269° |
| 2026-04-26 08:14 | 30.16388 | 78.08759 | 35785 ft | 381 kts | 263° |
| 2026-04-26 08:15 | 30.15245 | 78.02762 | 35776 ft | 385 kts | 256° |
| 2026-04-26 08:15 | 30.13759 | 77.96863 | 35775 ft | 385 kts | 256° |
| 2026-04-26 08:16 | 30.12308 | 77.90927 | 35779 ft | 383 kts | 256° |
| 2026-04-26 08:16 | 30.10825 | 77.85022 | 35778 ft | 384 kts | 256° |
| 2026-04-26 08:17 | 30.09330 | 77.79140 | 35776 ft | 384 kts | 256° |
| 2026-04-26 08:17 | 30.07795 | 77.73247 | 35775 ft | 384 kts | 255° |
| 2026-04-26 08:18 | 30.06246 | 77.67378 | 35778 ft | 383 kts | 256° |
| 2026-04-26 08:18 | 30.04705 | 77.61468 | 35777 ft | 385 kts | 256° |
| 2026-04-26 08:19 | 30.03644 | 77.55470 | 35778 ft | 381 kts | 267° |
| 2026-04-26 08:19 | 30.03938 | 77.49433 | 35775 ft | 381 kts | 282° |
| 2026-04-26 08:20 | 30.05885 | 77.43733 | 35776 ft | 387 kts | 294° |
| 2026-04-26 08:20 | 30.09235 | 77.38863 | 35786 ft | 399 kts | 314° |
| 2026-04-26 08:21 | 30.13783 | 77.35123 | 35778 ft | 410 kts | 326° |
| 2026-04-26 08:21 | 30.18952 | 77.32210 | 35778 ft | 412 kts | 326° |
| 2026-04-26 08:22 | 30.24016 | 77.29224 | 35776 ft | 411 kts | 325° |
| 2026-04-26 08:22 | 30.29089 | 77.26212 | 35777 ft | 411 kts | 325° |
| 2026-04-26 08:23 | 30.34167 | 77.23225 | 35777 ft | 412 kts | 326° |
| 2026-04-26 08:23 | 30.39103 | 77.20019 | 35775 ft | 403 kts | 317° |
| 2026-04-26 08:24 | 30.41144 | 77.17866 | 35782 ft | 394 kts | 305° |
| 2026-04-26 08:24 | 30.42811 | 77.15362 | 35779 ft | 392 kts | 302° |
| 2026-04-26 08:24 | 30.46102 | 77.10371 | 35777 ft | 393 kts | 303° |
| 2026-04-26 08:25 | 30.49460 | 77.05400 | 35777 ft | 393 kts | 303° |
| 2026-04-26 08:25 | 30.52774 | 77.00408 | 35776 ft | 393 kts | 302° |
| 2026-04-26 08:26 | 30.56070 | 76.95353 | 35777 ft | 392 kts | 302° |
| 2026-04-26 08:26 | 30.59314 | 76.90337 | 35775 ft | 391 kts | 302° |
| 2026-04-26 08:27 | 30.62578 | 76.85301 | 35774 ft | 391 kts | 302° |
| 2026-04-26 08:27 | 30.65851 | 76.80274 | 35777 ft | 390 kts | 301° |
| 2026-04-26 08:28 | 30.68691 | 76.74970 | 35778 ft | 383 kts | 290° |
| 2026-04-26 08:28 | 30.70666 | 76.69240 | 35777 ft | 383 kts | 289° |
| 2026-04-26 08:29 | 30.72689 | 76.63546 | 35776 ft | 384 kts | 289° |
| 2026-04-26 08:29 | 30.74674 | 76.57819 | 35776 ft | 383 kts | 289° |
| 2026-04-26 08:30 | 30.76647 | 76.52092 | 35776 ft | 383 kts | 289° |
| 2026-04-26 08:30 | 30.78616 | 76.46349 | 35776 ft | 383 kts | 289° |
| 2026-04-26 08:31 | 30.80579 | 76.40603 | 35776 ft | 383 kts | 289° |
| 2026-04-26 08:31 | 30.82545 | 76.34831 | 35777 ft | 383 kts | 288° |
| 2026-04-26 08:32 | 30.84507 | 76.29067 | 35777 ft | 383 kts | 288° |
| 2026-04-26 08:32 | 30.86462 | 76.23308 | 35777 ft | 384 kts | 288° |
| 2026-04-26 08:33 | 30.88415 | 76.17544 | 35776 ft | 383 kts | 288° |
| 2026-04-26 08:33 | 30.90362 | 76.11788 | 35777 ft | 384 kts | 288° |
| 2026-04-26 08:34 | 30.92302 | 76.06051 | 35776 ft | 384 kts | 288° |
| 2026-04-26 08:34 | 30.94261 | 76.00272 | 35776 ft | 384 kts | 289° |
| 2026-04-26 08:35 | 30.96233 | 75.94468 | 35777 ft | 385 kts | 289° |
| 2026-04-26 08:35 | 30.98186 | 75.88696 | 35777 ft | 385 kts | 289° |
| 2026-04-26 08:36 | 31.00129 | 75.82869 | 35778 ft | 387 kts | 289° |
| 2026-04-26 08:36 | 31.02044 | 75.77026 | 35777 ft | 386 kts | 289° |
| 2026-04-26 08:37 | 31.03961 | 75.71212 | 35778 ft | 386 kts | 289° |
| 2026-04-26 08:37 | 31.05870 | 75.65509 | 35776 ft | 386 kts | 289° |
| 2026-04-26 08:38 | 31.07856 | 75.59674 | 35779 ft | 386 kts | 289° |
| 2026-04-26 08:38 | 31.09799 | 75.53846 | 35777 ft | 388 kts | 289° |
| 2026-04-26 08:39 | 31.11757 | 75.48006 | 35776 ft | 387 kts | 288° |
| 2026-04-26 08:39 | 31.13302 | 75.42030 | 35776 ft | 386 kts | 283° |
| 2026-04-26 08:40 | 31.14759 | 75.36016 | 35775 ft | 387 kts | 284° |
| 2026-04-26 08:40 | 31.16310 | 75.30026 | 35776 ft | 385 kts | 284° |
| 2026-04-26 08:41 | 31.17847 | 75.24016 | 35777 ft | 386 kts | 284° |
| 2026-04-26 08:41 | 31.19352 | 75.18023 | 35760 ft | 387 kts | 284° |
| 2026-04-26 08:42 | 31.20861 | 75.12029 | 35748 ft | 385 kts | 284° |
| 2026-04-26 08:42 | 31.22381 | 75.06048 | 35749 ft | 385 kts | 285° |
| 2026-04-26 08:43 | 31.23891 | 75.00017 | 35752 ft | 386 kts | 284° |
| 2026-04-26 08:43 | 31.25396 | 74.93993 | 35751 ft | 386 kts | 285° |
| 2026-04-26 08:44 | 31.26890 | 74.88009 | 35751 ft | 386 kts | 284° |
| 2026-04-26 08:44 | 31.28368 | 74.81983 | 35752 ft | 386 kts | 284° |
| 2026-04-26 08:45 | 31.29820 | 74.75977 | 35762 ft | 385 kts | 284° |
| 2026-04-26 08:45 | 31.31328 | 74.69983 | 35769 ft | 384 kts | 285° |
| 2026-04-26 08:46 | 31.32834 | 74.64008 | 35777 ft | 385 kts | 285° |
| 2026-04-26 08:46 | 31.34823 | 74.58212 | 35775 ft | 389 kts | 300° |
| 2026-04-26 08:47 | 31.38367 | 74.53389 | 35775 ft | 397 kts | 313° |
| 2026-04-26 08:47 | 31.42736 | 74.49370 | 35775 ft | 401 kts | 318° |
| 2026-04-26 08:48 | 31.47153 | 74.45422 | 35776 ft | 398 kts | 317° |
| 2026-04-26 08:48 | 31.51551 | 74.41472 | 35779 ft | 400 kts | 317° |
| 2026-04-26 08:49 | 31.55911 | 74.37515 | 35777 ft | 400 kts | 317° |
| 2026-04-26 08:49 | 31.60345 | 74.33510 | 35779 ft | 402 kts | 316° |
| 2026-04-26 08:50 | 31.64751 | 74.29527 | 35774 ft | 400 kts | 316° |
| 2026-04-26 08:50 | 31.69110 | 74.25520 | 35777 ft | 398 kts | 316° |
| 2026-04-26 08:51 | 31.75698 | 74.19549 | 35778 ft | 402 kts | 317° |
| 2026-04-26 08:52 | 31.80144 | 74.15559 | 35776 ft | 400 kts | 317° |
| 2026-04-26 08:52 | 31.84526 | 74.11622 | 35777 ft | 399 kts | 317° |
| 2026-04-26 08:53 | 31.88939 | 74.07613 | 35776 ft | 400 kts | 317° |
| 2026-04-26 08:53 | 31.93300 | 74.03601 | 35777 ft | 399 kts | 316° |
| 2026-04-26 08:54 | 31.97638 | 73.99572 | 35777 ft | 398 kts | 316° |
| 2026-04-26 08:54 | 32.01981 | 73.95566 | 35777 ft | 400 kts | 316° |
| 2026-04-26 08:55 | 32.06377 | 73.91583 | 35775 ft | 400 kts | 317° |
| 2026-04-26 08:55 | 32.10780 | 73.87619 | 35775 ft | 399 kts | 316° |
| 2026-04-26 08:56 | 32.15162 | 73.83581 | 35779 ft | 401 kts | 316° |
| 2026-04-26 08:56 | 32.19511 | 73.79521 | 35775 ft | 400 kts | 316° |
| 2026-04-26 08:57 | 32.23866 | 73.75472 | 35775 ft | 399 kts | 316° |
| 2026-04-26 08:57 | 32.28250 | 73.71439 | 35779 ft | 400 kts | 316° |
| 2026-04-26 08:58 | 32.32612 | 73.67405 | 35775 ft | 399 kts | 316° |
| 2026-04-26 08:58 | 32.36959 | 73.63376 | 35778 ft | 399 kts | 316° |
| 2026-04-26 08:59 | 32.41328 | 73.59338 | 35778 ft | 400 kts | 316° |
| 2026-04-26 08:59 | 32.45689 | 73.55318 | 35778 ft | 399 kts | 316° |
| 2026-04-26 09:00 | 32.50053 | 73.51287 | 35775 ft | 399 kts | 317° |
| 2026-04-26 09:00 | 32.54428 | 73.47274 | 35775 ft | 400 kts | 317° |
| 2026-04-26 09:01 | 32.58828 | 73.43267 | 35776 ft | 400 kts | 317° |
| 2026-04-26 09:01 | 32.63187 | 73.39262 | 35787 ft | 399 kts | 316° |
| 2026-04-26 09:02 | 32.67521 | 73.35141 | 35795 ft | 399 kts | 316° |
| 2026-04-26 09:02 | 32.71866 | 73.31066 | 35805 ft | 399 kts | 316° |
| 2026-04-26 09:03 | 32.76052 | 73.26814 | 35816 ft | 394 kts | 309° |
| 2026-04-26 09:03 | 32.79290 | 73.21685 | 35826 ft | 389 kts | 299° |
| 2026-04-26 09:04 | 32.82278 | 73.16340 | 35830 ft | 390 kts | 301° |
| 2026-04-26 09:04 | 32.85305 | 73.11050 | 35832 ft | 388 kts | 300° |
| 2026-04-26 09:05 | 32.88245 | 73.05720 | 35830 ft | 387 kts | 300° |
| 2026-04-26 09:05 | 32.91199 | 73.00390 | 35830 ft | 387 kts | 300° |
| 2026-04-26 09:06 | 32.94183 | 72.95058 | 35830 ft | 386 kts | 300° |
| 2026-04-26 09:06 | 32.97115 | 72.89749 | 35830 ft | 386 kts | 300° |
| 2026-04-26 09:07 | 33.00066 | 72.84401 | 35831 ft | 388 kts | 300° |
| 2026-04-26 09:07 | 33.03025 | 72.79037 | 35830 ft | 390 kts | 300° |
| 2026-04-26 09:08 | 33.06019 | 72.73650 | 35832 ft | 391 kts | 301° |
| 2026-04-26 09:08 | 33.08994 | 72.68240 | 35830 ft | 392 kts | 300° |
| 2026-04-26 09:09 | 33.11959 | 72.62734 | 35831 ft | 394 kts | 300° |
| 2026-04-26 09:09 | 33.14921 | 72.57266 | 35830 ft | 395 kts | 300° |
| 2026-04-26 09:10 | 33.17917 | 72.51789 | 35830 ft | 395 kts | 301° |
| 2026-04-26 09:10 | 33.20918 | 72.46323 | 35830 ft | 395 kts | 301° |
| 2026-04-26 09:11 | 33.23931 | 72.40873 | 35832 ft | 396 kts | 301° |
| 2026-04-26 09:11 | 33.26943 | 72.35375 | 35831 ft | 394 kts | 300° |
| 2026-04-26 09:12 | 33.29944 | 72.29913 | 35829 ft | 394 kts | 300° |
| 2026-04-26 09:12 | 33.32911 | 72.24435 | 35832 ft | 395 kts | 300° |
| 2026-04-26 09:13 | 33.35857 | 72.18917 | 35830 ft | 393 kts | 299° |
| 2026-04-26 09:13 | 33.38824 | 72.13384 | 35831 ft | 395 kts | 300° |
| 2026-04-26 09:14 | 33.41765 | 72.07919 | 35829 ft | 393 kts | 300° |
| 2026-04-26 09:14 | 33.44735 | 72.02397 | 35831 ft | 394 kts | 300° |
| 2026-04-26 09:15 | 33.47722 | 71.96910 | 35831 ft | 395 kts | 300° |
| 2026-04-26 09:15 | 33.50703 | 71.91438 | 35829 ft | 393 kts | 300° |
| 2026-04-26 09:16 | 33.53072 | 71.85621 | 35830 ft | 389 kts | 283° |
| 2026-04-26 09:16 | 33.53486 | 71.82413 | 35834 ft | 390 kts | 272° |
| 2026-04-26 09:16 | 33.53396 | 71.79192 | 35834 ft | 392 kts | 267° |
| 2026-04-26 09:17 | 33.52976 | 71.72675 | 35828 ft | 391 kts | 268° |
| 2026-04-26 09:17 | 33.52678 | 71.66167 | 35832 ft | 391 kts | 268° |
| 2026-04-26 09:18 | 33.52265 | 71.59716 | 35833 ft | 391 kts | 267° |
| 2026-04-26 09:18 | 33.51865 | 71.53240 | 35832 ft | 389 kts | 268° |
| 2026-04-26 09:19 | 33.51520 | 71.46759 | 35831 ft | 390 kts | 268° |
| 2026-04-26 09:19 | 33.51110 | 71.40286 | 35830 ft | 391 kts | 267° |
| 2026-04-26 09:20 | 33.50670 | 71.33790 | 35831 ft | 391 kts | 266° |
| 2026-04-26 09:20 | 33.50227 | 71.27312 | 35831 ft | 392 kts | 267° |
| 2026-04-26 09:21 | 33.49802 | 71.20808 | 35830 ft | 392 kts | 267° |
| 2026-04-26 09:21 | 33.49386 | 71.14338 | 35830 ft | 390 kts | 267° |
| 2026-04-26 09:22 | 33.49146 | 71.07909 | 35826 ft | 388 kts | 277° |
| 2026-04-26 09:22 | 33.50404 | 71.01617 | 35827 ft | 391 kts | 287° |
| 2026-04-26 09:23 | 33.53070 | 70.95966 | 35841 ft | 396 kts | 309° |
| 2026-04-26 09:23 | 33.57006 | 70.91374 | 35828 ft | 397 kts | 312° |
| 2026-04-26 09:24 | 33.60943 | 70.86796 | 35832 ft | 397 kts | 312° |
| 2026-04-26 09:24 | 33.64909 | 70.82220 | 35830 ft | 396 kts | 313° |
| 2026-04-26 09:25 | 33.68904 | 70.77720 | 35830 ft | 394 kts | 313° |
| 2026-04-26 09:25 | 33.72859 | 70.73235 | 35831 ft | 395 kts | 313° |
| 2026-04-26 09:26 | 33.76853 | 70.68681 | 35830 ft | 395 kts | 313° |
| 2026-04-26 09:26 | 33.80822 | 70.64199 | 35831 ft | 394 kts | 313° |
| 2026-04-26 09:27 | 33.84798 | 70.59669 | 35831 ft | 395 kts | 313° |
| 2026-04-26 09:27 | 33.88770 | 70.55127 | 35829 ft | 394 kts | 313° |
| 2026-04-26 09:28 | 33.92586 | 70.50437 | 35831 ft | 391 kts | 306° |
| 2026-04-26 09:28 | 33.95433 | 70.44952 | 35831 ft | 388 kts | 296° |
| 2026-04-26 09:29 | 33.97987 | 70.39214 | 35830 ft | 389 kts | 297° |
| 2026-04-26 09:29 | 34.00556 | 70.33504 | 35831 ft | 388 kts | 296° |
| 2026-04-26 09:30 | 34.03080 | 70.27781 | 35831 ft | 387 kts | 296° |
| 2026-04-26 09:30 | 34.05586 | 70.22087 | 35831 ft | 388 kts | 296° |
| 2026-04-26 09:31 | 34.08139 | 70.16343 | 35830 ft | 387 kts | 296° |
| 2026-04-26 09:31 | 34.10644 | 70.10641 | 35831 ft | 388 kts | 296° |
| 2026-04-26 09:32 | 34.13155 | 70.04868 | 35829 ft | 388 kts | 296° |
| 2026-04-26 09:32 | 34.15646 | 69.99152 | 35831 ft | 388 kts | 296° |
| 2026-04-26 09:33 | 34.18163 | 69.93391 | 35830 ft | 388 kts | 296° |
| 2026-04-26 09:33 | 34.20663 | 69.87640 | 35832 ft | 388 kts | 295° |
| 2026-04-26 09:34 | 34.23144 | 69.81862 | 35831 ft | 388 kts | 296° |
| 2026-04-26 09:34 | 34.25618 | 69.76125 | 35831 ft | 386 kts | 296° |
| 2026-04-26 09:35 | 34.28101 | 69.70356 | 35831 ft | 387 kts | 296° |
| 2026-04-26 09:35 | 34.30557 | 69.64603 | 35831 ft | 388 kts | 295° |
| 2026-04-26 09:36 | 34.33023 | 69.58811 | 35831 ft | 388 kts | 296° |
| 2026-04-26 09:36 | 34.35480 | 69.53048 | 35831 ft | 387 kts | 296° |
| 2026-04-26 09:37 | 34.37958 | 69.47240 | 35831 ft | 387 kts | 296° |
| 2026-04-26 09:37 | 34.40437 | 69.41482 | 35830 ft | 387 kts | 296° |
| 2026-04-26 09:38 | 34.42894 | 69.35728 | 35831 ft | 388 kts | 296° |
| 2026-04-26 09:38 | 34.45355 | 69.29903 | 35830 ft | 388 kts | 295° |
| 2026-04-26 09:39 | 34.47792 | 69.24130 | 35830 ft | 387 kts | 295° |
| 2026-04-26 09:39 | 34.50230 | 69.18342 | 35830 ft | 387 kts | 295° |
| 2026-04-26 09:40 | 34.53032 | 69.12752 | 35832 ft | 389 kts | 303° |
| 2026-04-26 09:40 | 34.56236 | 69.07485 | 35831 ft | 389 kts | 303° |
| 2026-04-26 09:41 | 34.59372 | 69.02176 | 35832 ft | 390 kts | 303° |
| 2026-04-26 09:41 | 34.62573 | 68.96835 | 35830 ft | 392 kts | 303° |
| 2026-04-26 09:42 | 34.65770 | 68.91492 | 35830 ft | 392 kts | 303° |
| 2026-04-26 09:42 | 34.68986 | 68.86140 | 35832 ft | 394 kts | 303° |
| 2026-04-26 09:43 | 34.72181 | 68.80756 | 35804 ft | 393 kts | 303° |
| 2026-04-26 09:43 | 34.75356 | 68.75383 | 35822 ft | 393 kts | 303° |
| 2026-04-26 09:44 | 34.78552 | 68.70017 | 35855 ft | 393 kts | 303° |
| 2026-04-26 09:44 | 34.81749 | 68.64639 | 35906 ft | 393 kts | 303° |
| 2026-04-26 09:45 | 34.84926 | 68.59259 | 35957 ft | 393 kts | 303° |
| 2026-04-26 09:45 | 34.88095 | 68.53877 | 35989 ft | 393 kts | 303° |
| 2026-04-26 09:46 | 34.91268 | 68.48511 | 35992 ft | 392 kts | 303° |
| 2026-04-26 09:46 | 34.94447 | 68.43098 | 35993 ft | 392 kts | 303° |
| 2026-04-26 09:47 | 34.97613 | 68.37703 | 35993 ft | 393 kts | 303° |
| 2026-04-26 09:47 | 35.00805 | 68.32307 | 35992 ft | 393 kts | 303° |
| 2026-04-26 09:48 | 35.03955 | 68.26925 | 35993 ft | 391 kts | 303° |
| 2026-04-26 09:48 | 35.07091 | 68.21487 | 35993 ft | 392 kts | 302° |
| 2026-04-26 09:49 | 35.10150 | 68.16032 | 35993 ft | 392 kts | 302° |
| 2026-04-26 09:49 | 35.13261 | 68.10570 | 35992 ft | 392 kts | 302° |
| 2026-04-26 09:50 | 35.16335 | 68.05116 | 35992 ft | 391 kts | 302° |
| 2026-04-26 09:50 | 35.19387 | 67.99667 | 35993 ft | 391 kts | 302° |
| 2026-04-26 09:51 | 35.22474 | 67.94172 | 35993 ft | 392 kts | 302° |
| 2026-04-26 09:51 | 35.25574 | 67.88717 | 35993 ft | 391 kts | 302° |
| 2026-04-26 09:52 | 35.28662 | 67.83241 | 35993 ft | 392 kts | 302° |
| 2026-04-26 09:52 | 35.33304 | 67.75068 | 35993 ft | 391 kts | 303° |
| 2026-04-26 09:53 | 35.36414 | 67.69640 | 35993 ft | 391 kts | 303° |
| 2026-04-26 09:53 | 35.39540 | 67.64160 | 35993 ft | 392 kts | 303° |
| 2026-04-26 09:54 | 35.42642 | 67.58718 | 35993 ft | 392 kts | 303° |
| 2026-04-26 09:54 | 35.45732 | 67.53230 | 35993 ft | 391 kts | 303° |
| 2026-04-26 09:55 | 35.48834 | 67.47762 | 35993 ft | 391 kts | 303° |
| 2026-04-26 09:55 | 35.51923 | 67.42322 | 35993 ft | 392 kts | 303° |
| 2026-04-26 09:56 | 35.55005 | 67.36842 | 35992 ft | 391 kts | 303° |
| 2026-04-26 09:56 | 35.58082 | 67.31340 | 35992 ft | 391 kts | 302° |
| 2026-04-26 09:57 | 35.61158 | 67.25861 | 35992 ft | 391 kts | 302° |
| 2026-04-26 09:57 | 35.64267 | 67.20360 | 35993 ft | 392 kts | 302° |
| 2026-04-26 09:58 | 35.67342 | 67.14886 | 35992 ft | 392 kts | 302° |
| 2026-04-26 09:58 | 35.70430 | 67.09381 | 35992 ft | 390 kts | 302° |
| 2026-04-26 09:59 | 35.73504 | 67.03887 | 35993 ft | 390 kts | 301° |
| 2026-04-26 09:59 | 35.76551 | 66.98425 | 35993 ft | 390 kts | 301° |
| 2026-04-26 10:00 | 35.79619 | 66.92899 | 35993 ft | 391 kts | 301° |
| 2026-04-26 10:00 | 35.82689 | 66.87396 | 35992 ft | 390 kts | 301° |
| 2026-04-26 10:01 | 35.85771 | 66.81942 | 35993 ft | 390 kts | 301° |
| 2026-04-26 10:01 | 35.88843 | 66.76445 | 35992 ft | 391 kts | 301° |
| 2026-04-26 10:02 | 35.91908 | 66.70916 | 35993 ft | 389 kts | 301° |
| 2026-04-26 10:02 | 35.94971 | 66.65469 | 35993 ft | 390 kts | 301° |
| 2026-04-26 10:03 | 35.98053 | 66.59977 | 35993 ft | 390 kts | 301° |
| 2026-04-26 10:03 | 36.01105 | 66.54446 | 35992 ft | 389 kts | 301° |
| 2026-04-26 10:04 | 36.04143 | 66.48937 | 35992 ft | 389 kts | 301° |
| 2026-04-26 10:04 | 36.07219 | 66.43439 | 35993 ft | 390 kts | 301° |
| 2026-04-26 10:05 | 36.10275 | 66.37919 | 35994 ft | 390 kts | 301° |
| 2026-04-26 10:05 | 36.13291 | 66.32397 | 35992 ft | 390 kts | 300° |
| 2026-04-26 10:06 | 36.16330 | 66.26855 | 35992 ft | 390 kts | 300° |
| 2026-04-26 10:06 | 36.19383 | 66.21312 | 35992 ft | 389 kts | 301° |
| 2026-04-26 10:07 | 36.22439 | 66.15806 | 35995 ft | 391 kts | 301° |
| 2026-04-26 10:07 | 36.25483 | 66.10293 | 35992 ft | 390 kts | 300° |
| 2026-04-26 10:08 | 36.28527 | 66.04733 | 35992 ft | 388 kts | 301° |
| 2026-04-26 10:08 | 36.31520 | 65.99214 | 35994 ft | 389 kts | 300° |
| 2026-04-26 10:09 | 36.34534 | 65.93650 | 35999 ft | 389 kts | 300° |
| 2026-04-26 10:09 | 36.37552 | 65.88068 | 36020 ft | 390 kts | 300° |
| 2026-04-26 10:10 | 36.40585 | 65.82522 | 36059 ft | 389 kts | 301° |
| 2026-04-26 10:10 | 36.43608 | 65.76990 | 36114 ft | 389 kts | 301° |
| 2026-04-26 10:11 | 36.46635 | 65.71432 | 36164 ft | 389 kts | 301° |
| 2026-04-26 10:11 | 36.49629 | 65.65895 | 36181 ft | 388 kts | 301° |
| 2026-04-26 10:12 | 36.52631 | 65.60326 | 36183 ft | 389 kts | 300° |
| 2026-04-26 10:12 | 36.55615 | 65.54739 | 36181 ft | 388 kts | 300° |
| 2026-04-26 10:13 | 36.58585 | 65.49167 | 36182 ft | 387 kts | 300° |
| 2026-04-26 10:13 | 36.61564 | 65.43584 | 36183 ft | 389 kts | 301° |
| 2026-04-26 10:14 | 36.64577 | 65.38011 | 36181 ft | 389 kts | 301° |
| 2026-04-26 10:14 | 36.67589 | 65.32423 | 36181 ft | 388 kts | 300° |
| 2026-04-26 10:15 | 36.70567 | 65.26828 | 36183 ft | 387 kts | 300° |
| 2026-04-26 10:15 | 36.73542 | 65.21246 | 36182 ft | 389 kts | 300° |
| 2026-04-26 10:16 | 36.76529 | 65.15672 | 36181 ft | 388 kts | 300° |
| 2026-04-26 10:16 | 36.79491 | 65.10098 | 36181 ft | 387 kts | 300° |
| 2026-04-26 10:17 | 36.82456 | 65.04486 | 36183 ft | 389 kts | 300° |
| 2026-04-26 10:17 | 36.85438 | 64.98862 | 36181 ft | 389 kts | 300° |
| 2026-04-26 10:18 | 36.88410 | 64.93256 | 36182 ft | 389 kts | 300° |
| 2026-04-26 10:18 | 36.91404 | 64.87620 | 36182 ft | 390 kts | 299° |
| 2026-04-26 10:19 | 36.94351 | 64.81944 | 36182 ft | 390 kts | 296° |
| 2026-04-26 10:19 | 36.96617 | 64.75893 | 36182 ft | 383 kts | 285° |
| 2026-04-26 10:20 | 36.98155 | 64.69553 | 36181 ft | 383 kts | 285° |
| 2026-04-26 10:20 | 36.99775 | 64.63208 | 36182 ft | 386 kts | 285° |
| 2026-04-26 10:21 | 37.01378 | 64.56774 | 36182 ft | 387 kts | 285° |
| 2026-04-26 10:21 | 37.02914 | 64.50341 | 36181 ft | 386 kts | 285° |
| 2026-04-26 10:22 | 37.04431 | 64.43903 | 36181 ft | 387 kts | 285° |
| 2026-04-26 10:22 | 37.05956 | 64.37467 | 36182 ft | 388 kts | 285° |
| 2026-04-26 10:23 | 37.07497 | 64.31013 | 36181 ft | 389 kts | 285° |
| 2026-04-26 10:23 | 37.09034 | 64.24544 | 36182 ft | 390 kts | 285° |
| 2026-04-26 10:24 | 37.10600 | 64.18027 | 36182 ft | 391 kts | 285° |
| 2026-04-26 10:24 | 37.12165 | 64.11522 | 36181 ft | 391 kts | 285° |
| 2026-04-26 10:25 | 37.13715 | 64.04997 | 36182 ft | 392 kts | 285° |
| 2026-04-26 10:25 | 37.15261 | 63.98463 | 36182 ft | 392 kts | 285° |
| 2026-04-26 10:26 | 37.16797 | 63.91896 | 36182 ft | 393 kts | 284° |
| 2026-04-26 10:26 | 37.18310 | 63.85359 | 36182 ft | 391 kts | 285° |
| 2026-04-26 10:27 | 37.19811 | 63.78807 | 36187 ft | 391 kts | 284° |
| 2026-04-26 10:27 | 37.21315 | 63.72257 | 36193 ft | 392 kts | 285° |
| 2026-04-26 10:28 | 37.22814 | 63.65752 | 36202 ft | 391 kts | 285° |
| 2026-04-26 10:28 | 37.24320 | 63.59196 | 36208 ft | 392 kts | 285° |
| 2026-04-26 10:29 | 37.25832 | 63.52644 | 36209 ft | 391 kts | 285° |
| 2026-04-26 10:29 | 37.27342 | 63.46095 | 36209 ft | 390 kts | 285° |
| 2026-04-26 10:30 | 37.28831 | 63.39565 | 36207 ft | 391 kts | 284° |
| 2026-04-26 10:30 | 37.30334 | 63.32994 | 36209 ft | 390 kts | 284° |
| 2026-04-26 10:31 | 37.31859 | 63.26463 | 36207 ft | 391 kts | 284° |
| 2026-04-26 10:31 | 37.33358 | 63.19913 | 36210 ft | 392 kts | 284° |
| 2026-04-26 10:32 | 37.34869 | 63.13354 | 36210 ft | 391 kts | 284° |
| 2026-04-26 10:32 | 37.36600 | 63.05716 | 36210 ft | 392 kts | 284° |
| 2026-04-26 10:33 | 37.37810 | 63.00210 | 36208 ft | 392 kts | 284° |
| 2026-04-26 10:33 | 37.39266 | 62.93636 | 36210 ft | 393 kts | 284° |
| 2026-04-26 10:34 | 37.40744 | 62.87045 | 36209 ft | 393 kts | 285° |
| 2026-04-26 10:34 | 37.42239 | 62.80417 | 36209 ft | 395 kts | 284° |
| 2026-04-26 10:35 | 37.43721 | 62.73756 | 36208 ft | 395 kts | 284° |
| 2026-04-26 10:35 | 37.45172 | 62.67150 | 36208 ft | 393 kts | 284° |
| 2026-04-26 10:36 | 37.46625 | 62.60536 | 36209 ft | 393 kts | 284° |
| 2026-04-26 10:36 | 37.48097 | 62.53902 | 36209 ft | 394 kts | 284° |
| 2026-04-26 10:37 | 37.49581 | 62.47245 | 36209 ft | 395 kts | 285° |
| 2026-04-26 10:37 | 37.51046 | 62.40653 | 36209 ft | 393 kts | 284° |
| 2026-04-26 10:38 | 37.52479 | 62.33985 | 36209 ft | 395 kts | 284° |
| 2026-04-26 10:38 | 37.53914 | 62.27340 | 36209 ft | 395 kts | 284° |
| 2026-04-26 10:39 | 37.55352 | 62.20689 | 36209 ft | 393 kts | 284° |
| 2026-04-26 10:39 | 37.56797 | 62.14035 | 36208 ft | 393 kts | 284° |
| 2026-04-26 10:40 | 37.58244 | 62.07428 | 36210 ft | 394 kts | 284° |
| 2026-04-26 10:40 | 37.59685 | 62.00782 | 36208 ft | 393 kts | 284° |
| 2026-04-26 10:41 | 37.61116 | 61.94146 | 36209 ft | 393 kts | 284° |
| 2026-04-26 10:41 | 37.62381 | 61.87481 | 36209 ft | 393 kts | 278° |
| 2026-04-26 10:42 | 37.63000 | 61.80641 | 36209 ft | 393 kts | 276° |
| 2026-04-26 10:42 | 37.63701 | 61.73812 | 36209 ft | 393 kts | 277° |
| 2026-04-26 10:43 | 37.64399 | 61.67011 | 36209 ft | 393 kts | 277° |
| 2026-04-26 10:43 | 37.65052 | 61.60184 | 36208 ft | 392 kts | 277° |
| 2026-04-26 10:44 | 37.65695 | 61.53339 | 36209 ft | 392 kts | 277° |
| 2026-04-26 10:44 | 37.66346 | 61.46540 | 36209 ft | 392 kts | 277° |
| 2026-04-26 10:45 | 37.67003 | 61.39691 | 36209 ft | 394 kts | 277° |
| 2026-04-26 10:45 | 37.67649 | 61.32864 | 36208 ft | 392 kts | 276° |
| 2026-04-26 10:46 | 37.68294 | 61.26057 | 36208 ft | 393 kts | 276° |
| 2026-04-26 10:46 | 37.68938 | 61.19199 | 36209 ft | 393 kts | 276° |
| 2026-04-26 10:47 | 37.69572 | 61.12385 | 36209 ft | 395 kts | 276° |
| 2026-04-26 10:47 | 37.70227 | 61.05474 | 36210 ft | 395 kts | 276° |
| 2026-04-26 10:48 | 37.70850 | 60.98587 | 36210 ft | 398 kts | 276° |
| 2026-04-26 10:48 | 37.71490 | 60.91636 | 36192 ft | 399 kts | 277° |
| 2026-04-26 10:49 | 37.71803 | 60.88205 | 35782 ft | 393 kts | 277° |
| 2026-04-26 10:49 | 37.72110 | 60.84853 | 35374 ft | 386 kts | 277° |
| 2026-04-26 10:49 | 37.72419 | 60.81495 | 34915 ft | 381 kts | 277° |
| 2026-04-26 10:49 | 37.72722 | 60.78220 | 34457 ft | 376 kts | 277° |
| 2026-04-26 10:50 | 37.73018 | 60.74992 | 34001 ft | 371 kts | 277° |
| 2026-04-26 10:50 | 37.73305 | 60.71744 | 33546 ft | 374 kts | 276° |
| 2026-04-26 10:50 | 37.73598 | 60.68482 | 33080 ft | 374 kts | 276° |
| 2026-04-26 10:50 | 37.73890 | 60.65262 | 32619 ft | 369 kts | 276° |
| 2026-04-26 10:51 | 37.74180 | 60.62074 | 32165 ft | 364 kts | 277° |
| 2026-04-26 10:51 | 37.74748 | 60.55782 | 31270 ft | 360 kts | 276° |
| 2026-04-26 10:51 | 37.75028 | 60.52644 | 30818 ft | 363 kts | 277° |
| 2026-04-26 10:52 | 37.75402 | 60.49502 | 30359 ft | 359 kts | 279° |
| 2026-04-26 10:52 | 37.75822 | 60.46444 | 29914 ft | 354 kts | 279° |
| 2026-04-26 10:52 | 37.76216 | 60.43396 | 29471 ft | 349 kts | 278° |
| 2026-04-26 10:52 | 37.76582 | 60.40386 | 29036 ft | 346 kts | 278° |
| 2026-04-26 10:53 | 37.76941 | 60.37377 | 28601 ft | 352 kts | 278° |
| 2026-04-26 10:53 | 37.77321 | 60.34301 | 28146 ft | 350 kts | 278° |
| 2026-04-26 10:53 | 37.77706 | 60.31295 | 27706 ft | 346 kts | 278° |
| 2026-04-26 10:54 | 37.78446 | 60.25410 | 26843 ft | 338 kts | 278° |
| 2026-04-26 10:54 | 37.78805 | 60.22489 | 26418 ft | 339 kts | 278° |
| 2026-04-26 10:54 | 37.79167 | 60.19499 | 25979 ft | 342 kts | 277° |
| 2026-04-26 10:54 | 37.79518 | 60.16583 | 25547 ft | 338 kts | 277° |
| 2026-04-26 10:55 | 37.79870 | 60.13674 | 25119 ft | 334 kts | 277° |
| 2026-04-26 10:55 | 37.80222 | 60.10771 | 24690 ft | 330 kts | 277° |
| 2026-04-26 10:55 | 37.80563 | 60.07940 | 24274 ft | 326 kts | 277° |
| 2026-04-26 10:55 | 37.80903 | 60.05114 | 23861 ft | 331 kts | 277° |
| 2026-04-26 10:56 | 37.81249 | 60.02234 | 23429 ft | 329 kts | 277° |
| 2026-04-26 10:56 | 37.81591 | 59.99390 | 23008 ft | 325 kts | 277° |
| 2026-04-26 10:56 | 37.81925 | 59.96598 | 22595 ft | 322 kts | 277° |
| 2026-04-26 10:56 | 37.82257 | 59.93825 | 22185 ft | 318 kts | 277° |
| 2026-04-26 10:57 | 37.82588 | 59.91051 | 21778 ft | 319 kts | 277° |
| 2026-04-26 10:57 | 37.82920 | 59.88258 | 21361 ft | 321 kts | 277° |
| 2026-04-26 10:57 | 37.83235 | 59.85606 | 20965 ft | 317 kts | 277° |
| 2026-04-26 10:57 | 37.83561 | 59.82859 | 20556 ft | 313 kts | 277° |
| 2026-04-26 10:58 | 37.83882 | 59.80151 | 20153 ft | 310 kts | 277° |
| 2026-04-26 10:58 | 37.84198 | 59.77469 | 19755 ft | 308 kts | 277° |
| 2026-04-26 10:58 | 37.84517 | 59.74763 | 19354 ft | 313 kts | 277° |
| 2026-04-26 10:58 | 37.84832 | 59.72085 | 18949 ft | 310 kts | 277° |
| 2026-04-26 10:59 | 37.85146 | 59.69418 | 18550 ft | 306 kts | 277° |
| 2026-04-26 10:59 | 37.85455 | 59.66776 | 18156 ft | 303 kts | 277° |
| 2026-04-26 10:59 | 37.85761 | 59.64157 | 17765 ft | 300 kts | 277° |
| 2026-04-26 10:59 | 37.86068 | 59.61527 | 17378 ft | 306 kts | 277° |
| 2026-04-26 11:00 | 37.86379 | 59.58860 | 16971 ft | 303 kts | 277° |
| 2026-04-26 11:00 | 37.86682 | 59.56251 | 16580 ft | 299 kts | 277° |
| 2026-04-26 11:00 | 37.86982 | 59.53664 | 16193 ft | 296 kts | 277° |
| 2026-04-26 11:00 | 37.87278 | 59.51109 | 15809 ft | 293 kts | 277° |
| 2026-04-26 11:01 | 37.87574 | 59.48548 | 15430 ft | 299 kts | 277° |
| 2026-04-26 11:01 | 37.87872 | 59.45960 | 15034 ft | 296 kts | 277° |
| 2026-04-26 11:01 | 37.88166 | 59.43412 | 14650 ft | 293 kts | 277° |
| 2026-04-26 11:01 | 37.88457 | 59.40877 | 14268 ft | 290 kts | 277° |
| 2026-04-26 11:02 | 37.88744 | 59.38367 | 13890 ft | 287 kts | 277° |
| 2026-04-26 11:02 | 37.89033 | 59.35842 | 13514 ft | 292 kts | 277° |
| 2026-04-26 11:02 | 37.89265 | 59.33308 | 13121 ft | 290 kts | 273° |
| 2026-04-26 11:02 | 37.89400 | 59.30772 | 12739 ft | 287 kts | 272° |
| 2026-04-26 11:03 | 37.89546 | 59.28277 | 12365 ft | 284 kts | 273° |
| 2026-04-26 11:03 | 37.89698 | 59.25810 | 11995 ft | 281 kts | 273° |
| 2026-04-26 11:03 | 37.89845 | 59.23367 | 11628 ft | 279 kts | 273° |
| 2026-04-26 11:03 | 37.89994 | 59.20875 | 11259 ft | 284 kts | 273° |
| 2026-04-26 11:04 | 37.90141 | 59.18422 | 10881 ft | 282 kts | 273° |
| 2026-04-26 11:04 | 37.90290 | 59.15944 | 10482 ft | 280 kts | 273° |
| 2026-04-26 11:04 | 37.90435 | 59.13517 | 10150 ft | 275 kts | 273° |
| 2026-04-26 11:04 | 37.90578 | 59.11124 | 9948 ft | 267 kts | 273° |
| 2026-04-26 11:05 | 37.90713 | 59.08824 | 9615 ft | 264 kts | 273° |
| 2026-04-26 11:05 | 37.90851 | 59.06502 | 9297 ft | 261 kts | 273° |
| 2026-04-26 11:05 | 37.90985 | 59.04226 | 8985 ft | 258 kts | 273° |
| 2026-04-26 11:05 | 37.91115 | 59.02002 | 8679 ft | 255 kts | 273° |
| 2026-04-26 11:06 | 37.91244 | 58.99792 | 8395 ft | 249 kts | 273° |
| 2026-04-26 11:06 | 37.91372 | 58.97614 | 8075 ft | 242 kts | 273° |
| 2026-04-26 11:06 | 37.91494 | 58.95517 | 7783 ft | 235 kts | 273° |
| 2026-04-26 11:06 | 37.91612 | 58.93490 | 7507 ft | 229 kts | 273° |
| 2026-04-26 11:07 | 37.91725 | 58.91530 | 7241 ft | 222 kts | 273° |
| 2026-04-26 11:07 | 37.91834 | 58.89609 | 6976 ft | 216 kts | 273° |
| 2026-04-26 11:07 | 37.91942 | 58.87741 | 6722 ft | 210 kts | 273° |
| 2026-04-26 11:07 | 37.92048 | 58.85906 | 6468 ft | 204 kts | 274° |
| 2026-04-26 11:08 | 37.92146 | 58.84139 | 6226 ft | 200 kts | 272° |
| 2026-04-26 11:08 | 37.92243 | 58.82398 | 5989 ft | 201 kts | 272° |
| 2026-04-26 11:08 | 37.92347 | 58.80632 | 5743 ft | 200 kts | 272° |
| 2026-04-26 11:08 | 37.92451 | 58.78867 | 5500 ft | 199 kts | 273° |
| 2026-04-26 11:09 | 37.92548 | 58.77128 | 5257 ft | 198 kts | 273° |
| 2026-04-26 11:09 | 37.92648 | 58.75394 | 5018 ft | 198 kts | 272° |
| 2026-04-26 11:09 | 37.92744 | 58.73638 | 4776 ft | 200 kts | 272° |
| 2026-04-26 11:09 | 37.92841 | 58.71917 | 4536 ft | 196 kts | 273° |
| 2026-04-26 11:10 | 37.92937 | 58.70209 | 4299 ft | 195 kts | 273° |
| 2026-04-26 11:10 | 37.93032 | 58.68481 | 4064 ft | 195 kts | 273° |
| 2026-04-26 11:10 | 37.93127 | 58.66774 | 3827 ft | 195 kts | 273° |
| 2026-04-26 11:10 | 37.93221 | 58.65063 | 3601 ft | 194 kts | 272° |
| 2026-04-26 11:11 | 37.93308 | 58.63428 | 3506 ft | 178 kts | 273° |
| 2026-04-26 11:11 | 37.93395 | 58.61914 | 3440 ft | 171 kts | 273° |
| 2026-04-26 11:11 | 37.93432 | 58.60386 | 3321 ft | 174 kts | 261° |
| 2026-04-26 11:11 | 37.92883 | 58.59081 | 3196 ft | 171 kts | 228° |
| 2026-04-26 11:12 | 37.92151 | 58.57891 | 3041 ft | 172 kts | 248° |
| 2026-04-26 11:12 | 37.91879 | 58.56444 | 2954 ft | 168 kts | 254° |
| 2026-04-26 11:12 | 37.91482 | 58.55081 | 2756 ft | 159 kts | 246° |
| 2026-04-26 11:12 | 37.91069 | 58.53788 | 2628 ft | 160 kts | 248° |
| 2026-04-26 11:13 | 37.90806 | 58.52438 | 2463 ft | 159 kts | 277° |
| 2026-04-26 11:13 | 37.91254 | 58.51174 | 2568 ft | 162 kts | 298° |
| 2026-04-26 11:13 | 37.91763 | 58.49884 | 2471 ft | 159 kts | 294° |
| 2026-04-26 11:13 | 37.92269 | 58.48635 | 2518 ft | 157 kts | 298° |
| 2026-04-26 11:14 | 37.92800 | 58.47434 | 2489 ft | 158 kts | 297° |
| 2026-04-26 11:14 | 37.93349 | 58.46199 | 2272 ft | 154 kts | 298° |
| 2026-04-26 11:14 | 37.93869 | 58.45036 | 2091 ft | 153 kts | 298° |
| 2026-04-26 11:14 | 37.94395 | 58.43860 | 1884 ft | 153 kts | 297° |
| 2026-04-26 11:15 | 37.94917 | 58.42674 | 1680 ft | 154 kts | 297° |
| 2026-04-26 11:15 | 37.95444 | 58.41484 | 1486 ft | 155 kts | 298° |
| 2026-04-26 11:15 | 37.95973 | 58.40312 | 1263 ft | 150 kts | 298° |
| 2026-04-26 11:15 | 37.96493 | 58.39180 | 1025 ft | 148 kts | 298° |
| 2026-04-26 11:16 | 37.97002 | 58.38048 | 814 ft | 149 kts | 297° |
| 2026-04-26 11:16 | 37.97509 | 58.36913 | 701 ft | 142 kts | 298° |
| 2026-04-26 11:16 | 37.97894 | 58.36037 | 699 ft | 79 kts | 301° |
| 2026-04-26 11:16 | 37.98074 | 58.35634 | 699 ft | 31 kts | 300° |
| 2026-04-26 11:17 | 37.98165 | 58.35434 | 699 ft | 24 kts | 301° |
| 2026-04-26 11:17 | 37.98302 | 58.35277 | 699 ft | 29 kts | 329° |
| 2026-04-26 11:17 | 37.98479 | 58.35173 | 699 ft | 21 kts | 27° |
| 2026-04-26 11:17 | 37.98461 | 58.35325 | 699 ft | 19 kts | 120° |
| 2026-04-26 11:18 | 37.98392 | 58.35477 | 699 ft | 20 kts | 120° |
| 2026-04-26 11:18 | 37.98311 | 58.35657 | 699 ft | 26 kts | 120° |
| 2026-04-26 11:18 | 37.98213 | 58.35878 | 699 ft | 30 kts | 120° |
| 2026-04-26 11:18 | 37.98118 | 58.36091 | 699 ft | 25 kts | 120° |
| 2026-04-26 11:19 | 37.98040 | 58.36264 | 699 ft | 20 kts | 120° |
| 2026-04-26 11:19 | 37.97971 | 58.36418 | 699 ft | 22 kts | 120° |
| 2026-04-26 11:19 | 37.97878 | 58.36628 | 699 ft | 32 kts | 120° |
| 2026-04-26 11:19 | 37.97769 | 58.36720 | 699 ft | 17 kts | 204° |
| 2026-04-26 11:20 | 37.97644 | 58.36634 | 699 ft | 23 kts | 210° |
| 2026-04-26 11:20 | 37.97480 | 58.36534 | 699 ft | 27 kts | 175° |
| 2026-04-26 11:20 | 37.97299 | 58.36652 | 699 ft | 32 kts | 149° |
| 2026-04-26 11:20 | 37.97100 | 58.36798 | 699 ft | 33 kts | 151° |
| 2026-04-26 11:21 | 37.96916 | 58.36930 | 699 ft | 28 kts | 150° |
| 2026-04-26 11:21 | 37.96794 | 58.37083 | 699 ft | 22 kts | 129° |
| 2026-04-26 11:21 | 37.96721 | 58.37211 | 699 ft | 8 kts | 88° |
| 2026-04-26 11:21 | 37.96756 | 58.37263 | 699 ft | 4 kts | 62° |
| 2026-04-26 11:22 | 37.96745 | 58.37297 | 699 ft | 5 kts | 126° |
| 2026-04-26 11:22 | 37.96722 | 58.37336 | 699 ft | 0 kts | 128° |